< < Back
Terminal Aerodrome Forecast


Current Version              Previous Versions:   1  2  3  4  5  6  7  8  9  

Terminal Aerodrome Forecast

055
FTUS44 KBMX 271100
TAFMGM
TAF
KMGM 271136Z 2712/2812 28005KT P6SM SKC
     FM271500 32012G20KT P6SM SCT035
     FM280000 33006KT P6SM SKC=

Latest METAR

540
SAUS80 KWBC 270500 RRG
MTRMGM
METAR KMGM 280453Z AUTO 31005KT 10SM CLR 02/M02 A3045 RMK AO2 SLP313
T00221017 FZRANO


USA.gov is the U.S. government's official web portal to all federal, state and local government web resources and services.